createdAt,value
2018-03-20T00:02:28.125Z,71.07
2018-03-20T00:04:56.606Z,70.69
2018-03-20T00:07:25.081Z,71.00
2018-03-20T00:09:53.533Z,70.65
2018-03-20T00:12:22.014Z,71.01
2018-03-20T00:14:50.464Z,71.62
2018-03-20T00:17:18.956Z,71.14
2018-03-20T00:19:47.455Z,70.53
2018-03-20T00:22:15.908Z,70.33
2018-03-20T00:24:44.390Z,70.21
2018-03-20T00:27:12.872Z,70.81
2018-03-20T00:29:41.321Z,70.86
2018-03-20T00:32:09.813Z,70.72
2018-03-20T00:34:38.263Z,70.88
2018-03-20T00:37:06.710Z,70.93
2018-03-20T00:39:35.226Z,71.23
2018-03-20T00:42:03.686Z,71.25
2018-03-20T00:44:32.178Z,71.46
2018-03-20T00:47:00.671Z,71.70
2018-03-20T00:49:29.162Z,71.97
2018-03-20T00:51:57.668Z,71.73
2018-03-20T00:54:26.134Z,71.40
2018-03-20T00:56:54.926Z,71.34
2018-03-20T00:59:23.442Z,71.40
2018-03-20T01:01:51.902Z,71.50
2018-03-20T01:04:20.361Z,71.21
2018-03-20T01:06:48.861Z,71.38
2018-03-20T01:09:17.424Z,71.24
2018-03-20T01:11:45.945Z,71.42
2018-03-20T01:14:14.410Z,71.34
2018-03-20T01:16:42.902Z,71.59
2018-03-20T01:19:11.409Z,71.76
2018-03-20T01:21:39.866Z,72.20
2018-03-20T01:24:08.361Z,71.92
2018-03-20T01:26:36.855Z,71.68
2018-03-20T01:29:05.348Z,71.79
2018-03-20T01:31:33.869Z,71.64
2018-03-20T01:34:02.367Z,71.68
2018-03-20T01:36:30.858Z,71.29
2018-03-20T01:38:59.390Z,72.05
2018-03-20T01:41:27.906Z,72.30
2018-03-20T01:43:56.368Z,72.37
2018-03-20T01:46:24.866Z,72.33
2018-03-20T01:48:53.374Z,72.87
2018-03-20T01:51:21.831Z,73.16
2018-03-20T01:53:50.327Z,73.86
2018-03-20T01:56:18.830Z,73.49
2018-03-20T01:58:47.302Z,73.78
2018-03-20T02:01:15.801Z,73.73
2018-03-20T02:03:44.302Z,73.67
2018-03-20T02:06:12.798Z,73.16
2018-03-20T02:08:41.257Z,73.34
2018-03-20T02:11:09.753Z,73.90
2018-03-20T02:13:38.214Z,73.74
2018-03-20T02:16:06.722Z,74.04
2018-03-20T02:18:35.206Z,74.33
2018-03-20T02:21:03.669Z,73.54
2018-03-20T02:23:32.166Z,74.02
2018-03-20T02:26:00.622Z,74.07
2018-03-20T02:28:29.162Z,74.43
2018-03-20T02:30:57.641Z,74.64
2018-03-20T02:33:26.188Z,74.94
2018-03-20T02:35:54.665Z,74.92
2018-03-20T02:38:23.176Z,74.57
2018-03-20T02:40:51.683Z,74.97
2018-03-20T02:43:20.171Z,74.91
2018-03-20T02:45:48.666Z,75.31
2018-03-20T02:48:17.197Z,75.56
2018-03-20T02:50:45.764Z,75.50
2018-03-20T02:53:14.217Z,75.04
2018-03-20T02:55:42.723Z,74.71
2018-03-20T02:58:11.166Z,74.49
2018-03-20T03:00:39.689Z,74.32
2018-03-20T03:03:08.143Z,74.02
2018-03-20T03:05:36.639Z,74.06
2018-03-20T03:08:05.114Z,74.41
2018-03-20T03:10:33.628Z,74.43
2018-03-20T03:13:02.119Z,74.14
2018-03-20T03:15:30.622Z,74.26
2018-03-20T03:17:59.082Z,74.06
2018-03-20T03:20:27.566Z,72.79
2018-03-20T03:22:56.044Z,73.40
2018-03-20T03:25:24.512Z,73.79
2018-03-20T03:27:52.986Z,73.29
2018-03-20T03:30:21.471Z,73.12
2018-03-20T03:32:49.910Z,73.29
2018-03-20T03:35:18.394Z,73.64
2018-03-20T03:37:46.841Z,74.61
2018-03-20T03:40:15.356Z,74.38
2018-03-20T03:42:43.846Z,73.77
2018-03-20T03:45:12.350Z,74.06
2018-03-20T03:47:40.829Z,73.81
2018-03-20T03:50:09.278Z,74.21
2018-03-20T03:52:37.770Z,74.16
2018-03-20T03:55:06.243Z,74.00
2018-03-20T03:57:34.681Z,74.35
2018-03-20T04:00:03.211Z,74.14
2018-03-20T04:02:31.665Z,74.51
2018-03-20T04:05:00.129Z,74.28
2018-03-20T04:07:28.646Z,74.70
2018-03-20T04:09:57.130Z,74.64
2018-03-20T04:12:25.575Z,74.74
2018-03-20T04:14:54.050Z,74.68
2018-03-20T04:17:22.544Z,74.83
2018-03-20T04:19:51.002Z,74.85
2018-03-20T04:22:19.518Z,75.17
2018-03-20T04:24:47.982Z,75.20
2018-03-20T04:27:16.441Z,75.23
2018-03-20T04:29:44.918Z,75.36
2018-03-20T04:32:13.361Z,75.75
2018-03-20T04:34:41.846Z,76.38
2018-03-20T04:37:10.292Z,75.94
2018-03-20T04:39:38.773Z,75.97
2018-03-20T04:42:07.230Z,76.01
2018-03-20T04:44:35.714Z,76.19
2018-03-20T04:47:04.166Z,75.59
2018-03-20T04:49:32.645Z,75.76
2018-03-20T04:52:01.133Z,75.94
2018-03-20T04:54:29.603Z,76.08
2018-03-20T04:56:58.099Z,75.67
2018-03-20T04:59:26.601Z,75.76
2018-03-20T05:01:55.025Z,75.55
2018-03-20T05:04:23.558Z,75.59
2018-03-20T05:06:52.018Z,75.62
2018-03-20T05:09:20.510Z,75.43
2018-03-20T05:11:49.004Z,74.73
2018-03-20T05:14:17.498Z,74.85
2018-03-20T05:16:45.978Z,74.82
2018-03-20T05:22:21.186Z,74.65
2018-03-20T05:24:49.748Z,74.72
2018-03-20T05:27:18.320Z,75.17
2018-03-20T05:29:46.856Z,75.13
2018-03-20T05:32:15.385Z,74.64
2018-03-20T05:34:43.975Z,74.24
2018-03-20T05:37:12.550Z,74.08
2018-03-20T05:39:41.057Z,74.28
2018-03-20T05:42:09.547Z,74.16
2018-03-20T05:44:38.030Z,74.08
2018-03-20T05:50:13.477Z,74.55
2018-03-20T05:52:42.058Z,74.44
2018-03-20T05:55:10.642Z,74.05
2018-03-20T05:57:39.133Z,74.23
2018-03-20T06:00:07.614Z,73.54
2018-03-20T06:02:36.106Z,73.22
2018-03-20T06:05:04.601Z,73.01
2018-03-20T06:07:33.152Z,72.95
2018-03-20T06:10:01.607Z,72.76
2018-03-20T06:12:30.089Z,72.68
2018-03-20T06:14:58.545Z,72.78
2018-03-20T06:17:27.035Z,72.28
2018-03-20T06:19:55.546Z,72.03
2018-03-20T06:22:23.994Z,71.37
2018-03-20T06:24:52.504Z,71.49
2018-03-20T06:27:21.114Z,70.72
2018-03-20T06:29:49.684Z,71.09
2018-03-20T06:32:18.176Z,70.90
2018-03-20T06:34:46.681Z,71.25
2018-03-20T06:37:15.214Z,70.57
2018-03-20T06:39:43.688Z,70.22
2018-03-20T06:42:12.215Z,69.77
2018-03-20T06:44:40.714Z,70.17
2018-03-20T06:47:09.214Z,68.68
2018-03-20T06:49:37.680Z,68.68
2018-03-20T06:52:06.146Z,69.13
2018-03-20T06:54:34.642Z,68.24
2018-03-20T06:57:03.098Z,67.56
2018-03-20T06:59:31.615Z,67.32
2018-03-20T07:02:00.169Z,67.87
2018-03-20T07:04:28.622Z,67.96
2018-03-20T07:06:57.152Z,67.57
2018-03-20T07:09:25.705Z,67.46
2018-03-20T07:11:54.089Z,67.24
2018-03-20T07:14:22.604Z,66.55
2018-03-20T07:16:51.134Z,64.40
2018-03-20T07:19:19.591Z,64.40
2018-03-20T07:21:48.042Z,64.43
2018-03-20T07:24:16.531Z,64.15
2018-03-20T07:26:45.014Z,64.15
2018-03-20T07:29:13.511Z,63.49
2018-03-20T07:31:41.970Z,63.22
2018-03-20T07:34:10.578Z,63.25
2018-03-20T07:36:39.086Z,62.06
2018-03-20T07:39:07.583Z,61.98
2018-03-20T07:41:36.096Z,61.26
2018-03-20T07:44:04.610Z,61.61
2018-03-20T07:46:33.133Z,60.50
2018-03-20T07:49:01.594Z,61.16
2018-03-20T07:51:30.079Z,61.37
2018-03-20T07:53:58.574Z,59.24
2018-03-20T07:56:27.108Z,60.66
2018-03-20T07:58:55.655Z,59.06
2018-03-20T08:01:24.121Z,58.08
2018-03-20T08:03:52.575Z,59.70
2018-03-20T08:06:21.101Z,58.04
2018-03-20T08:08:49.602Z,60.83
2018-03-20T08:11:18.102Z,58.83
2018-03-20T08:13:46.616Z,56.78
2018-03-20T08:16:15.079Z,57.24
2018-03-20T08:18:43.574Z,56.96
2018-03-20T08:21:12.122Z,58.37
2018-03-20T08:23:40.630Z,57.48
2018-03-20T08:26:09.135Z,56.66
2018-03-20T08:28:37.602Z,57.19
2018-03-20T08:31:06.103Z,57.57
2018-03-20T08:33:34.798Z,57.55
2018-03-20T08:36:03.330Z,57.16
2018-03-20T08:38:31.847Z,54.02
2018-03-20T08:41:01.784Z,53.88
2018-03-20T08:43:30.342Z,54.17
2018-03-20T08:45:58.803Z,54.96
2018-03-20T08:48:27.299Z,55.70
2018-03-20T08:50:55.785Z,55.16
2018-03-20T08:53:24.488Z,55.43
2018-03-20T08:55:53.001Z,54.78
2018-03-20T08:58:21.483Z,55.33
2018-03-20T09:00:50.246Z,55.66
2018-03-20T09:03:19.511Z,54.65
2018-03-20T09:05:48.003Z,54.36
2018-03-20T09:08:16.566Z,53.67
2018-03-20T09:10:45.072Z,52.69
2018-03-20T09:13:13.580Z,52.51
2018-03-20T09:15:42.050Z,52.55
2018-03-20T09:18:10.538Z,52.65
2018-03-20T09:20:39.252Z,52.52
2018-03-20T09:23:07.814Z,52.47
2018-03-20T09:25:36.291Z,53.59
2018-03-20T09:28:04.786Z,54.67
2018-03-20T09:30:33.248Z,53.19
2018-03-20T09:33:01.707Z,52.81
2018-03-20T09:35:30.233Z,53.00
2018-03-20T09:37:58.753Z,53.01
2018-03-20T09:40:27.256Z,52.30
2018-03-20T09:42:55.714Z,52.38
2018-03-20T09:45:24.206Z,51.60
2018-03-20T09:47:52.670Z,51.46
2018-03-20T09:50:21.170Z,52.41
2018-03-20T09:52:49.629Z,51.67
2018-03-20T09:55:18.098Z,51.44
2018-03-20T09:57:46.589Z,51.26
2018-03-20T10:00:15.130Z,50.84
2018-03-20T10:02:43.639Z,50.56
2018-03-20T10:05:12.108Z,50.14
2018-03-20T10:07:40.574Z,50.59
2018-03-20T10:10:09.110Z,50.34
2018-03-20T10:12:37.614Z,50.43
2018-03-20T10:15:06.606Z,52.02
2018-03-20T10:17:35.090Z,50.96
2018-03-20T10:20:03.625Z,51.02
2018-03-20T10:22:32.146Z,50.68
2018-03-20T10:25:00.655Z,50.11
2018-03-20T10:27:29.138Z,49.96
2018-03-20T10:29:57.646Z,50.16
2018-03-20T10:32:26.113Z,50.87
2018-03-20T10:34:54.626Z,49.97
2018-03-20T10:37:23.124Z,49.16
2018-03-20T10:39:51.629Z,49.63
2018-03-20T10:42:20.100Z,50.65
2018-03-20T10:44:48.594Z,50.25
2018-03-20T10:47:17.078Z,49.96
2018-03-20T10:49:45.568Z,49.83
2018-03-20T10:52:14.060Z,50.15
2018-03-20T10:54:42.515Z,49.92
2018-03-20T10:57:11.006Z,50.24
2018-03-20T10:59:39.504Z,50.00
2018-03-20T11:02:13.592Z,49.81
2018-03-20T11:04:42.094Z,47.91
2018-03-20T11:07:10.599Z,48.52
2018-03-20T11:09:39.146Z,48.33
2018-03-20T11:12:07.598Z,48.48
2018-03-20T11:14:36.044Z,49.36
2018-03-20T11:17:04.547Z,49.07
2018-03-20T11:19:33.046Z,49.81
2018-03-20T11:22:01.518Z,48.78
2018-03-20T11:24:30.019Z,48.85
2018-03-20T11:26:58.565Z,49.06
2018-03-20T11:29:27.019Z,49.61
2018-03-20T11:31:55.514Z,48.70
2018-03-20T11:34:24.027Z,48.58
2018-03-20T11:36:52.539Z,47.73
2018-03-20T11:39:21.078Z,47.85
2018-03-20T11:41:49.561Z,46.67
2018-03-20T11:44:18.094Z,47.31
2018-03-20T11:46:46.595Z,46.33
2018-03-20T11:49:15.098Z,46.41
2018-03-20T11:51:43.598Z,46.21
2018-03-20T11:54:12.108Z,46.59
2018-03-20T11:56:40.575Z,47.26
2018-03-20T11:59:09.083Z,46.50
2018-03-20T12:01:37.614Z,46.16
2018-03-20T12:04:06.208Z,46.25
2018-03-20T12:06:34.748Z,46.17
2018-03-20T12:09:12.151Z,44.99
2018-03-20T12:11:40.650Z,44.25
2018-03-20T12:14:09.107Z,44.05
2018-03-20T12:16:37.662Z,43.82
2018-03-20T12:19:06.173Z,44.70
2018-03-20T12:21:34.738Z,45.33
2018-03-20T12:24:03.226Z,44.95
2018-03-20T12:26:31.686Z,45.14
2018-03-20T12:29:00.182Z,45.34
2018-03-20T12:31:28.646Z,44.50
2018-03-20T12:33:57.234Z,44.10
2018-03-20T12:36:25.871Z,44.07
2018-03-20T12:38:54.398Z,43.46
2018-03-20T12:41:22.897Z,44.26
2018-03-20T12:43:51.414Z,43.16
2018-03-20T12:46:19.874Z,43.67
2018-03-20T12:48:48.399Z,43.49
2018-03-20T12:51:16.862Z,43.51
2018-03-20T12:53:45.362Z,42.78
2018-03-20T12:56:13.818Z,41.93
2018-03-20T12:58:42.328Z,41.73
2018-03-20T13:01:10.801Z,42.31
2018-03-20T13:03:39.320Z,42.98
2018-03-20T13:06:07.846Z,43.83
2018-03-20T13:08:36.337Z,43.17
2018-03-20T13:11:04.834Z,41.92
2018-03-20T13:13:33.290Z,42.48
2018-03-20T13:16:01.835Z,42.93
2018-03-20T13:18:30.299Z,43.51
2018-03-20T13:20:58.759Z,42.74
2018-03-20T13:23:27.354Z,42.88
2018-03-20T13:25:55.773Z,42.92
2018-03-20T13:28:24.309Z,42.42
2018-03-20T13:30:52.774Z,41.97
2018-03-20T13:33:21.284Z,43.18
2018-03-20T13:35:49.735Z,43.18
2018-03-20T13:38:18.281Z,41.86
2018-03-20T13:40:46.765Z,41.20
2018-03-20T13:43:15.278Z,41.95
2018-03-20T13:45:43.760Z,41.50
2018-03-20T13:48:12.249Z,41.47
2018-03-20T13:50:40.774Z,41.84
2018-03-20T13:56:02.397Z,41.59
2018-03-20T13:58:30.865Z,41.19
2018-03-20T14:00:59.410Z,42.09
2018-03-20T14:03:27.999Z,42.59
2018-03-20T14:05:56.524Z,42.86
2018-03-20T14:08:25.044Z,43.03
2018-03-20T14:10:53.571Z,43.54
2018-03-20T14:13:22.027Z,43.81
2018-03-20T14:15:50.529Z,43.56
2018-03-20T14:18:19.069Z,43.93
2018-03-20T14:20:47.642Z,44.48
2018-03-20T14:23:16.170Z,44.16
2018-03-20T14:25:45.453Z,44.59
2018-03-20T14:28:13.966Z,44.37
2018-03-20T14:30:42.500Z,44.68
2018-03-20T14:33:11.028Z,45.09
2018-03-20T14:35:39.482Z,45.35
2018-03-20T14:38:08.038Z,45.11
2018-03-20T14:40:36.574Z,45.69
2018-03-20T14:43:05.091Z,45.87
2018-03-20T14:45:33.597Z,45.89
2018-03-20T14:48:02.141Z,45.49
2018-03-20T14:50:30.603Z,45.76
2018-03-20T14:52:59.074Z,45.92
2018-03-20T14:55:27.627Z,46.07
2018-03-20T14:57:56.090Z,45.99
2018-03-20T15:00:24.582Z,46.45
2018-03-20T15:02:53.107Z,45.78
2018-03-20T15:05:21.614Z,46.26
2018-03-20T15:07:50.137Z,46.36
2018-03-20T15:10:18.591Z,46.17
2018-03-20T15:12:47.062Z,46.11
2018-03-20T15:15:15.558Z,46.76
2018-03-20T15:17:44.052Z,46.42
2018-03-20T15:20:12.506Z,46.54
2018-03-20T15:22:40.994Z,46.85
2018-03-20T15:25:09.499Z,46.86
2018-03-20T15:27:37.989Z,47.03
2018-03-20T15:30:06.471Z,47.19
2018-03-20T15:32:34.979Z,47.20
2018-03-20T15:35:03.475Z,47.19
2018-03-20T15:37:31.966Z,47.79
2018-03-20T15:40:00.459Z,48.31
2018-03-20T15:42:28.968Z,48.55
2018-03-20T15:44:57.433Z,47.65
2018-03-20T15:47:25.930Z,47.67
2018-03-20T15:49:54.387Z,48.05
2018-03-20T15:52:22.883Z,47.73
2018-03-20T15:54:51.370Z,48.04
2018-03-20T15:57:19.822Z,48.33
2018-03-20T15:59:48.310Z,49.06
2018-03-20T16:02:16.799Z,50.03
2018-03-20T16:04:45.300Z,50.61
2018-03-20T16:07:13.750Z,50.88
2018-03-20T16:09:42.242Z,51.08
2018-03-20T16:12:10.705Z,51.61
2018-03-20T16:14:39.198Z,51.85
2018-03-20T16:17:07.646Z,52.07
2018-03-20T16:19:36.151Z,52.78
2018-03-20T16:22:04.606Z,53.63
2018-03-20T16:24:33.071Z,54.00
2018-03-20T16:27:01.567Z,54.40
2018-03-20T16:29:30.016Z,54.63
2018-03-20T16:31:58.504Z,54.69
2018-03-20T16:34:26.990Z,55.33
2018-03-20T16:36:55.465Z,55.22
2018-03-20T16:39:23.999Z,55.67
2018-03-20T16:41:52.496Z,56.11
2018-03-20T16:44:20.956Z,56.12
2018-03-20T16:46:49.446Z,56.54
2018-03-20T16:49:17.903Z,56.68
2018-03-20T16:51:46.388Z,57.08
2018-03-20T16:54:14.846Z,57.01
2018-03-20T16:56:43.338Z,57.89
2018-03-20T16:59:11.837Z,57.59
2018-03-20T17:01:40.284Z,57.83
2018-03-20T17:04:08.771Z,57.84
2018-03-20T17:06:37.241Z,58.17
2018-03-20T17:09:05.749Z,58.28
2018-03-20T17:11:34.198Z,58.34
2018-03-20T17:14:02.689Z,59.05
2018-03-20T17:16:31.168Z,58.82
2018-03-20T17:18:59.666Z,58.58
2018-03-20T17:21:28.130Z,58.80
2018-03-20T17:23:56.640Z,58.79
2018-03-20T17:26:25.163Z,58.95
2018-03-20T17:28:53.685Z,59.32
2018-03-20T17:31:22.206Z,59.19
2018-03-20T17:33:50.702Z,59.29
2018-03-20T17:36:19.171Z,59.07
2018-03-20T17:38:47.699Z,59.50
2018-03-20T17:41:16.160Z,59.18
2018-03-20T17:43:44.635Z,59.03
2018-03-20T17:46:13.189Z,58.83
2018-03-20T17:48:41.630Z,59.08
2018-03-20T17:51:10.143Z,58.88
2018-03-20T17:53:38.623Z,59.01
2018-03-20T17:56:07.087Z,59.23
2018-03-20T17:58:35.558Z,58.97
2018-03-20T18:01:04.041Z,59.25
2018-03-20T18:03:32.546Z,59.70
2018-03-20T18:06:01.018Z,59.84
2018-03-20T18:08:29.526Z,59.67
2018-03-20T18:10:57.995Z,59.99
2018-03-20T18:13:26.502Z,60.03
2018-03-20T18:15:54.966Z,61.15
2018-03-20T18:18:23.457Z,61.31
2018-03-20T18:20:51.989Z,61.37
2018-03-20T18:23:20.456Z,61.46
2018-03-20T18:25:48.950Z,62.16
2018-03-20T18:28:18.045Z,62.24
2018-03-20T18:30:46.563Z,62.51
2018-03-20T18:33:15.029Z,63.48
2018-03-20T18:35:43.530Z,64.22
2018-03-20T18:38:11.996Z,65.20
2018-03-20T18:40:40.454Z,66.61
2018-03-20T18:43:08.951Z,67.43
2018-03-20T18:45:37.414Z,67.36
2018-03-20T18:48:05.921Z,67.84
2018-03-20T18:50:34.410Z,68.38
2018-03-20T18:53:02.938Z,68.67
2018-03-20T18:55:31.457Z,68.99
2018-03-20T18:57:59.961Z,69.08
2018-03-20T19:00:28.422Z,69.28
2018-03-20T19:02:56.877Z,69.57
2018-03-20T19:05:25.344Z,69.22
2018-03-20T19:07:53.900Z,69.26
2018-03-20T19:10:22.346Z,69.34
2018-03-20T19:12:50.872Z,69.85
2018-03-20T19:15:19.352Z,69.73
2018-03-20T19:17:47.813Z,69.54
2018-03-20T19:20:16.349Z,69.64
2018-03-20T19:22:44.850Z,69.71
2018-03-20T19:25:13.306Z,69.84
2018-03-20T19:27:41.824Z,69.96
2018-03-20T19:30:10.295Z,70.40
2018-03-20T19:32:38.793Z,70.31
2018-03-20T19:35:07.258Z,70.37
2018-03-20T19:37:35.758Z,70.43
2018-03-20T19:40:04.258Z,70.51
2018-03-20T19:42:32.811Z,70.21
2018-03-20T19:45:01.295Z,71.02
2018-03-20T19:47:29.778Z,70.47
2018-03-20T19:49:58.288Z,70.52
2018-03-20T19:52:26.749Z,70.70
2018-03-20T19:54:55.265Z,70.45
2018-03-20T19:57:23.726Z,70.82
2018-03-20T19:59:52.202Z,70.64
2018-03-20T20:02:20.710Z,70.75
2018-03-20T20:04:49.208Z,70.83
2018-03-20T20:07:17.706Z,70.74
2018-03-20T20:09:46.203Z,70.49
2018-03-20T20:12:14.658Z,70.52
2018-03-20T20:14:43.170Z,70.40
2018-03-20T20:17:11.630Z,70.44
2018-03-20T20:19:40.135Z,70.16
2018-03-20T20:22:08.642Z,70.03
2018-03-20T20:24:37.107Z,69.95
2018-03-20T20:27:05.625Z,69.95
2018-03-20T20:29:34.142Z,69.88
2018-03-20T20:32:02.639Z,69.81
2018-03-20T20:34:31.100Z,69.90
2018-03-20T20:36:59.606Z,69.68
2018-03-20T20:39:28.066Z,69.73
2018-03-20T20:41:56.570Z,69.75
2018-03-20T20:44:25.077Z,70.07
2018-03-20T20:46:53.575Z,69.67
2018-03-20T20:49:22.074Z,69.94
2018-03-20T20:51:50.574Z,69.83
2018-03-20T20:54:19.034Z,69.68
2018-03-20T20:56:47.559Z,69.56
2018-03-20T20:59:16.070Z,69.67
2018-03-20T21:01:44.530Z,69.86
2018-03-20T21:04:13.026Z,69.94
2018-03-20T21:06:41.541Z,69.63
2018-03-20T21:09:10.074Z,69.71
2018-03-20T21:11:38.582Z,69.57
2018-03-20T21:14:07.034Z,69.69
2018-03-20T21:16:35.526Z,69.51
2018-03-20T21:19:04.014Z,69.77
2018-03-20T21:21:32.486Z,69.71
2018-03-20T21:24:01.006Z,69.52
2018-03-20T21:26:29.514Z,69.46
2018-03-20T21:28:57.975Z,69.53
2018-03-20T21:31:26.478Z,69.38
2018-03-20T21:33:54.942Z,69.48
2018-03-20T21:36:23.462Z,69.05
2018-03-20T21:38:51.934Z,69.10
2018-03-20T21:41:20.414Z,69.32
2018-03-20T21:43:48.874Z,69.41
2018-03-20T21:46:17.364Z,69.29
2018-03-20T21:48:45.831Z,69.20
2018-03-20T21:51:14.275Z,69.30
2018-03-20T21:53:42.714Z,69.03
2018-03-20T21:56:11.174Z,69.44
2018-03-20T21:58:39.657Z,69.36
2018-03-20T22:01:08.106Z,69.34
2018-03-20T22:03:36.587Z,69.14
2018-03-20T22:06:05.045Z,69.12
2018-03-20T22:08:34.338Z,69.36
2018-03-20T22:11:02.830Z,69.09
2018-03-20T22:13:31.318Z,69.23
2018-03-20T22:15:59.809Z,69.25
2018-03-20T22:18:28.265Z,69.42
2018-03-20T22:20:56.831Z,69.21
2018-03-20T22:23:25.282Z,69.25
2018-03-20T22:25:53.778Z,69.18
2018-03-20T22:28:22.259Z,68.88
2018-03-20T22:30:50.729Z,68.88
2018-03-20T22:33:19.185Z,69.13
2018-03-20T22:35:47.669Z,69.24
2018-03-20T22:38:16.192Z,69.03
2018-03-20T22:40:44.638Z,68.76
2018-03-20T22:43:13.086Z,68.87
2018-03-20T22:45:41.605Z,69.00
2018-03-20T22:48:10.086Z,68.95
2018-03-20T22:50:38.526Z,68.72
2018-03-20T22:53:07.007Z,68.79
2018-03-20T22:55:35.458Z,68.59
2018-03-20T22:58:03.960Z,68.73
2018-03-20T23:00:32.470Z,68.49
2018-03-20T23:03:00.914Z,68.72
2018-03-20T23:05:29.471Z,68.43
2018-03-20T23:07:57.920Z,68.25
2018-03-20T23:10:26.442Z,68.35
2018-03-20T23:12:54.900Z,68.42
2018-03-20T23:15:23.346Z,68.60
2018-03-20T23:17:51.829Z,68.47
2018-03-20T23:20:20.274Z,68.59
2018-03-20T23:22:48.754Z,68.53
2018-03-20T23:25:17.210Z,68.42
2018-03-20T23:27:45.703Z,68.62
2018-03-20T23:30:14.186Z,68.93
2018-03-20T23:32:42.650Z,68.96
2018-03-20T23:35:11.130Z,69.05
2018-03-20T23:37:39.588Z,68.83
2018-03-20T23:40:08.083Z,68.67
2018-03-20T23:42:36.569Z,68.55
2018-03-20T23:45:05.010Z,68.56
2018-03-20T23:47:33.495Z,68.41
2018-03-20T23:50:01.964Z,67.96
2018-03-20T23:52:30.450Z,68.22
2018-03-20T23:54:58.899Z,67.78
2018-03-20T23:57:27.391Z,67.42
2018-03-20T23:59:55.862Z,67.59
